createdAt,value
2019-01-30T00:03:36.734Z,83.30
2019-01-30T00:07:41.258Z,83.20
2019-01-30T00:11:45.790Z,83.30
2019-01-30T00:15:56.397Z,83.40
2019-01-30T00:19:56.492Z,83.30
2019-01-30T00:24:00.971Z,83.20
2019-01-30T00:28:05.896Z,83.10
2019-01-30T00:32:10.411Z,83.10
2019-01-30T00:36:14.931Z,83.10
2019-01-30T00:40:19.719Z,83.10
2019-01-30T00:44:24.290Z,83.10
2019-01-30T00:48:28.903Z,83.10
2019-01-30T00:52:33.442Z,83.00
2019-01-30T00:56:37.971Z,83.00
2019-01-30T01:00:42.447Z,83.00
2019-01-30T01:04:46.968Z,83.10
2019-01-30T01:08:51.608Z,83.00
2019-01-30T01:12:56.154Z,83.00
2019-01-30T01:17:00.694Z,83.00
2019-01-30T01:23:09.663Z,82.70
2019-01-30T01:27:14.178Z,83.50
2019-01-30T01:35:28.035Z,83.50
2019-01-30T01:39:32.563Z,84.20
2019-01-30T01:43:37.133Z,84.20
2019-01-30T01:48:03.790Z,83.60
2019-01-30T01:52:08.286Z,84.20
2019-01-30T01:56:12.813Z,84.30
2019-01-30T02:00:20.019Z,84.10
2019-01-30T02:04:24.527Z,84.20
2019-01-30T02:08:29.046Z,84.20
2019-01-30T02:12:33.539Z,84.10
2019-01-30T02:16:38.136Z,84.20
2019-01-30T02:20:42.668Z,84.30
2019-01-30T02:24:47.204Z,84.30
2019-01-30T02:28:51.731Z,84.40
2019-01-30T02:41:10.805Z,83.70
2019-01-30T02:45:18.299Z,85.20
2019-01-30T02:49:22.832Z,84.40
2019-01-30T02:53:27.466Z,84.40
2019-01-30T02:57:31.975Z,84.50
2019-01-30T03:01:46.867Z,84.20
2019-01-30T03:05:51.395Z,84.00
2019-01-30T03:09:55.931Z,83.70
2019-01-30T03:14:00.474Z,83.90
2019-01-30T03:18:05.296Z,83.80
2019-01-30T03:22:09.838Z,83.80
2019-01-30T03:26:14.354Z,83.90
2019-01-30T03:30:30.463Z,84.00
2019-01-30T03:34:35.010Z,83.90
2019-01-30T03:38:39.506Z,83.90
2019-01-30T03:42:44.084Z,83.90
2019-01-30T03:46:48.596Z,83.80
2019-01-30T03:50:53.218Z,83.90
2019-01-30T03:54:57.738Z,84.00
2019-01-30T03:59:02.341Z,83.80
2019-01-30T04:03:06.888Z,83.70
2019-01-30T04:16:05.221Z,83.30
2019-01-30T04:26:00.935Z,83.50
2019-01-30T04:30:08.002Z,84.50
2019-01-30T04:34:12.527Z,84.40
2019-01-30T04:38:17.071Z,84.30
2019-01-30T04:48:35.318Z,83.80
2019-01-30T04:52:39.895Z,84.20
2019-01-30T04:56:44.440Z,84.00
2019-01-30T05:00:48.979Z,83.80
2019-01-30T05:04:53.500Z,83.70
2019-01-30T05:10:02.654Z,83.10
2019-01-30T05:14:30.823Z,83.20
2019-01-30T05:39:09.551Z,83.40
2019-01-30T05:43:14.107Z,84.30
2019-01-30T05:51:36.642Z,83.20
2019-01-30T05:59:50.643Z,83.30
2019-01-30T06:03:55.249Z,84.10
2019-01-30T06:13:40.110Z,83.30
2019-01-30T06:17:44.550Z,84.00
2019-01-30T06:37:28.596Z,83.40
2019-01-30T06:46:20.510Z,83.40
2019-01-30T06:51:17.503Z,83.40
2019-01-30T06:55:21.983Z,83.80
2019-01-30T06:59:26.533Z,83.80
2019-01-30T07:08:33.355Z,83.20
2019-01-30T07:20:41.147Z,83.30
2019-01-30T07:26:23.036Z,83.40
2019-01-30T07:57:46.588Z,83.80
2019-01-30T08:05:53.127Z,84.40
2019-01-30T08:17:02.210Z,84.20
2019-01-30T08:21:06.740Z,84.90
2019-01-30T08:27:23.431Z,84.30
2019-01-30T08:33:28.718Z,84.60
2019-01-30T08:41:11.760Z,84.50
2019-01-30T08:51:19.811Z,84.60
2019-01-30T08:55:24.339Z,84.80
2019-01-30T09:00:45.125Z,84.70
2019-01-30T09:04:49.699Z,84.50
2019-01-30T09:10:40.608Z,84.70
2019-01-30T09:14:45.143Z,85.30
2019-01-30T09:23:36.531Z,84.60
2019-01-30T09:27:41.115Z,85.50
2019-01-30T09:37:43.403Z,84.70
2019-01-30T09:47:21.778Z,84.60
2019-01-30T09:51:26.300Z,84.60
2019-01-30T09:55:30.827Z,85.30
2019-01-30T09:59:35.367Z,84.80
2019-01-30T10:07:18.080Z,84.40
2019-01-30T10:11:22.616Z,85.00
2019-01-30T10:16:39.110Z,84.20
2019-01-30T10:20:45.534Z,84.40
2019-01-30T10:28:30.139Z,84.00
2019-01-30T10:32:34.859Z,83.80
2019-01-30T10:45:29.031Z,83.70
2019-01-30T10:52:59.181Z,83.80
2019-01-30T10:57:47.803Z,83.80
2019-01-30T11:06:40.756Z,83.80
2019-01-30T11:15:11.579Z,83.50
2019-01-30T11:19:51.573Z,83.20
2019-01-30T11:23:56.239Z,82.90
2019-01-30T11:30:32.122Z,83.20
2019-01-30T12:12:48.576Z,82.80
2019-01-30T12:47:41.367Z,81.60
2019-01-30T13:27:43.990Z,81.50
2019-01-30T13:31:48.699Z,82.40
2019-01-30T13:35:53.231Z,83.10
2019-01-30T17:17:15.976Z,83.10
2019-01-30T17:22:37.262Z,83.10
2019-01-30T17:26:41.793Z,83.80
2019-01-30T17:31:13.198Z,83.70
2019-01-30T17:44:12.888Z,83.30
2019-01-30T17:48:18.194Z,83.80
2019-01-30T17:52:22.716Z,83.70
2019-01-30T17:56:27.246Z,83.80
2019-01-30T18:00:46.673Z,83.50
2019-01-30T18:04:51.022Z,83.60
2019-01-30T18:08:55.534Z,83.60
2019-01-30T18:13:00.068Z,83.60
2019-01-30T18:17:04.687Z,83.50
2019-01-30T18:21:09.215Z,83.50
2019-01-30T18:25:14.788Z,83.50
2019-01-30T18:29:19.265Z,83.50
2019-01-30T18:33:23.807Z,83.40
2019-01-30T18:37:28.345Z,83.30
2019-01-30T18:57:45.781Z,82.90
2019-01-30T19:13:15.797Z,82.90
2019-01-30T19:17:20.301Z,83.60
2019-01-30T19:24:44.688Z,82.90
2019-01-30T19:28:49.244Z,83.60
2019-01-30T19:32:53.772Z,83.60
2019-01-30T19:37:03.531Z,83.60
2019-01-30T19:41:04.583Z,84.30
2019-01-30T19:45:11.393Z,83.70
2019-01-30T19:49:15.917Z,83.70
2019-01-30T19:53:20.532Z,83.60
2019-01-30T19:57:25.046Z,83.60
2019-01-30T20:01:35.942Z,83.70
2019-01-30T20:05:35.756Z,83.60
2019-01-30T20:09:40.259Z,83.70
2019-01-30T20:13:44.783Z,83.70
2019-01-30T20:17:49.307Z,83.80
2019-01-30T20:22:45.224Z,83.20
2019-01-30T20:28:08.889Z,83.10
2019-01-30T20:32:56.790Z,83.00
2019-01-30T20:37:01.302Z,83.50
2019-01-30T21:14:36.844Z,82.90
2019-01-30T21:52:38.396Z,82.90
2019-01-30T21:56:42.947Z,83.60
2019-01-30T22:00:47.481Z,83.60
2019-01-30T22:04:52.003Z,83.50
2019-01-30T22:08:56.497Z,83.40
2019-01-30T22:13:01.048Z,83.50
2019-01-30T22:17:05.690Z,83.10
2019-01-30T22:21:10.216Z,83.10
2019-01-30T22:25:20.334Z,82.90
2019-01-30T22:29:22.723Z,82.90
2019-01-30T22:33:27.253Z,82.80
2019-01-30T22:37:31.784Z,82.80
2019-01-30T22:41:36.307Z,82.70
2019-01-30T22:45:40.861Z,82.60
2019-01-30T22:49:45.351Z,82.60
2019-01-30T22:53:49.880Z,82.70
2019-01-30T22:57:54.426Z,82.60
2019-01-30T23:02:01.807Z,82.60
2019-01-30T23:06:32.035Z,82.70
2019-01-30T23:11:25.874Z,82.80
2019-01-30T23:16:16.078Z,82.80
2019-01-30T23:20:24.142Z,82.90
2019-01-30T23:25:12.379Z,82.80
2019-01-30T23:29:48.768Z,82.70
2019-01-30T23:34:43.628Z,83.60
2019-01-30T23:39:03.062Z,82.90
2019-01-30T23:43:50.982Z,83.10
